Time;durP1;ratioP1;P1;durP2;ratioP2;P2;SDS_P1;SDS_P2;PMS_P1;PMS_P2;Temp;Humidity;BMP_temperature;BMP_pressure;BME280_temperature;BME280_humidity;BME280_pressure;Samples;Min_cycle;Max_cycle;Signal;HPM_P1;HPM_P2
2021/05/02 00:01:12;;;;;;;2.85;1.85;;;;;;;;;;5027280;28;20034;-56
2021/05/02 00:03:39;;;;;;;8.63;2.03;;;;;;;;;;5023966;28;20042;-55
2021/05/02 00:06:07;;;;;;;7.22;1.95;;;;;;;;;;5020686;28;20036;-56
2021/05/02 00:08:34;;;;;;;5.88;1.50;;;;;;;;;;5030295;28;20044;-56
2021/05/02 00:11:01;;;;;;;10.07;2.45;;;;;;;;;;5027821;28;20041;-56
2021/05/02 00:13:27;;;;;;;5.97;1.70;;;;;;;;;;5028637;28;20077;-55
2021/05/02 00:15:53;;;;;;;4.88;1.77;;;;;;;;;;5022526;28;20429;-56
2021/05/02 00:18:31;;;;;;;6.45;1.98;;;;;;;;;;5021549;28;20688;-54
2021/05/02 00:20:58;;;;;;;6.72;2.17;;;;;;;;;;5025236;28;20036;-55
2021/05/02 00:23:24;;;;;;;7.68;1.60;;;;;;;;;;5027243;28;20065;-54
2021/05/02 00:25:51;;;;;;;4.38;1.80;;;;;;;;;;5030047;28;20069;-56
2021/05/02 00:28:17;;;;;;;8.80;1.75;;;;;;;;;;5017911;28;20077;-56
2021/05/02 00:30:43;;;;;;;5.93;1.90;;;;;;;;;;5025665;28;20505;-55
2021/05/02 00:33:10;;;;;;;5.72;2.22;;;;;;;;;;5025476;28;20390;-56
2021/05/02 00:35:36;;;;;;;5.72;1.63;;;;;;;;;;5024480;28;20044;-55
2021/05/02 00:38:03;;;;;;;5.40;1.80;;;;;;;;;;5029446;28;20132;-56
2021/05/02 00:40:29;;;;;;;5.88;1.73;;;;;;;;;;5026769;28;20740;-55
2021/05/02 00:42:57;;;;;;;7.30;1.77;;;;;;;;;;5029266;28;20087;-53
2021/05/02 00:45:25;;;;;;;3.70;1.70;;;;;;;;;;5024449;28;20127;-56
2021/05/02 00:48:01;;;;;;;8.15;1.73;;;;;;;;;;5023457;28;20054;-55
2021/05/02 00:50:32;;;;;;;5.20;1.80;;;;;;;;;;5027364;28;20079;-55
2021/05/02 00:53:01;;;;;;;4.28;1.58;;;;;;;;;;5030805;28;20128;-55
2021/05/02 00:55:30;;;;;;;5.40;1.50;;;;;;;;;;5028498;28;20457;-55
2021/05/02 00:58:00;;;;;;;4.03;1.70;;;;;;;;;;5028386;28;20041;-54
2021/05/02 01:00:28;;;;;;;5.55;1.33;;;;;;;;;;5029772;28;20040;-55
2021/05/02 01:02:56;;;;;;;3.88;2.03;;;;;;;;;;5025909;28;20042;-56
2021/05/02 01:05:23;;;;;;;6.88;1.50;;;;;;;;;;5030263;28;20429;-55
2021/05/02 01:07:56;;;;;;;6.78;1.27;;;;;;;;;;5028781;28;20041;-56
2021/05/02 01:10:23;;;;;;;2.67;1.60;;;;;;;;;;5028828;28;20049;-55
2021/05/02 01:12:49;;;;;;;3.58;1.40;;;;;;;;;;5029709;28;20037;-56
2021/05/02 01:15:21;;;;;;;7.25;1.63;;;;;;;;;;5028884;28;20045;-55
2021/05/02 01:18:08;;;;;;;8.00;1.38;;;;;;;;;;5020393;28;20792;-55
2021/05/02 01:20:36;;;;;;;3.20;1.45;;;;;;;;;;5028971;28;20061;-55
2021/05/02 01:23:04;;;;;;;5.88;2.13;;;;;;;;;;5028524;28;20064;-55
2021/05/02 01:25:31;;;;;;;4.68;1.17;;;;;;;;;;5026787;28;20045;-54
2021/05/02 01:27:58;;;;;;;4.30;1.42;;;;;;;;;;5025425;28;20033;-55
2021/05/02 01:30:26;;;;;;;4.68;1.20;;;;;;;;;;5028639;28;20033;-55
2021/05/02 01:32:52;;;;;;;3.90;1.23;;;;;;;;;;5030144;28;20030;-56
2021/05/02 01:35:19;;;;;;;1.95;1.27;;;;;;;;;;5022880;28;20095;-55
2021/05/02 01:37:47;;;;;;;2.30;1.83;;;;;;;;;;5020494;28;20045;-56
2021/05/02 01:40:14;;;;;;;3.85;1.30;;;;;;;;;;5022470;28;20387;-56
2021/05/02 01:42:40;;;;;;;3.25;1.63;;;;;;;;;;5025005;28;20148;-55
2021/05/02 01:45:07;;;;;;;2.25;1.40;;;;;;;;;;5029207;28;20029;-55
2021/05/02 01:47:37;;;;;;;8.10;1.95;;;;;;;;;;5026202;28;20432;-56
2021/05/02 01:50:04;;;;;;;6.53;1.70;;;;;;;;;;5018046;28;20084;-55
2021/05/02 01:52:34;;;;;;;4.22;1.48;;;;;;;;;;5024013;28;20059;-55
2021/05/02 01:55:01;;;;;;;8.63;1.50;;;;;;;;;;5028270;28;20041;-54
2021/05/02 01:57:29;;;;;;;4.20;1.35;;;;;;;;;;5029410;28;20063;-56
2021/05/02 01:59:59;;;;;;;6.75;1.90;;;;;;;;;;5025448;28;20044;-56
2021/05/02 02:02:26;;;;;;;3.30;1.63;;;;;;;;;;5027545;28;20034;-57
2021/05/02 02:04:54;;;;;;;5.05;2.22;;;;;;;;;;5029219;28;20492;-55
2021/05/02 02:07:21;;;;;;;6.50;2.20;;;;;;;;;;5020126;28;20044;-56
2021/05/02 02:09:47;;;;;;;2.90;1.40;;;;;;;;;;5026178;28;20045;-56
2021/05/02 02:12:13;;;;;;;3.28;1.30;;;;;;;;;;5024326;28;20611;-55
2021/05/02 02:14:40;;;;;;;5.05;1.67;;;;;;;;;;5028572;28;20045;-54
2021/05/02 02:17:07;;;;;;;4.30;1.90;;;;;;;;;;5019004;28;20406;-55
2021/05/02 02:19:34;;;;;;;2.45;1.75;;;;;;;;;;5019827;28;20037;-54
2021/05/02 02:22:01;;;;;;;3.83;1.95;;;;;;;;;;5028085;28;20033;-55
2021/05/02 02:24:47;;;;;;;5.80;2.15;;;;;;;;;;5022869;28;20042;-55
2021/05/02 02:27:14;;;;;;;3.95;1.42;;;;;;;;;;5016993;28;20050;-56
2021/05/02 02:29:45;;;;;;;3.63;1.45;;;;;;;;;;5028437;28;20120;-55
2021/05/02 02:32:12;;;;;;;4.55;1.80;;;;;;;;;;5025470;28;20064;-54
2021/05/02 02:34:41;;;;;;;6.28;1.73;;;;;;;;;;5019874;28;20038;-55
2021/05/02 02:37:10;;;;;;;3.10;1.67;;;;;;;;;;5019231;28;20705;-55
2021/05/02 02:39:38;;;;;;;2.78;1.20;;;;;;;;;;5019725;28;20034;-55
2021/05/02 02:42:05;;;;;;;3.08;1.20;;;;;;;;;;5022228;28;20589;-55
2021/05/02 02:44:34;;;;;;;2.05;1.20;;;;;;;;;;5025515;28;20560;-55
2021/05/02 02:47:00;;;;;;;1.52;1.10;;;;;;;;;;5028436;28;20049;-55
2021/05/02 02:49:28;;;;;;;1.60;1.17;;;;;;;;;;5027960;28;20072;-56
2021/05/02 02:51:56;;;;;;;2.78;1.15;;;;;;;;;;5026200;28;20034;-54
2021/05/02 02:54:22;;;;;;;1.00;1.00;;;;;;;;;;5028923;28;20034;-55
2021/05/02 02:56:50;;;;;;;2.67;1.10;;;;;;;;;;5025412;28;20041;-54
2021/05/02 02:59:23;;;;;;;0.90;0.90;;;;;;;;;;5028076;28;20034;-55
2021/05/02 03:01:49;;;;;;;1.50;1.00;;;;;;;;;;5015108;28;20058;-56
2021/05/02 03:04:17;;;;;;;1.15;1.00;;;;;;;;;;5023635;28;20061;-55
2021/05/02 03:06:44;;;;;;;1.15;1.10;;;;;;;;;;5025173;28;20481;-56
2021/05/02 03:09:11;;;;;;;1.00;1.00;;;;;;;;;;5026729;28;20041;-54
2021/05/02 03:11:38;;;;;;;1.42;1.10;;;;;;;;;;5031263;28;20386;-55
2021/05/02 03:14:05;;;;;;;1.20;1.20;;;;;;;;;;5020140;28;20041;-54
2021/05/02 03:16:32;;;;;;;5.22;1.30;;;;;;;;;;5030548;28;20068;-55
2021/05/02 03:19:04;;;;;;;2.05;1.00;;;;;;;;;;5029239;28;20049;-54
2021/05/02 03:21:53;;;;;;;1.40;1.10;;;;;;;;;;5028724;28;20449;-55
2021/05/02 03:24:23;;;;;;;2.05;1.17;;;;;;;;;;5030013;28;20049;-55
2021/05/02 03:26:51;;;;;;;6.22;1.15;;;;;;;;;;5015849;28;20034;-55
2021/05/02 03:29:17;;;;;;;1.17;1.10;;;;;;;;;;5028795;28;20060;-55
2021/05/02 03:31:47;;;;;;;2.13;1.10;;;;;;;;;;5029457;28;20049;-54
2021/05/02 03:34:16;;;;;;;3.33;1.80;;;;;;;;;;5031817;28;20044;-55
2021/05/02 03:36:48;;;;;;;3.05;1.10;;;;;;;;;;5027861;28;20053;-56
2021/05/02 03:39:15;;;;;;;2.73;1.30;;;;;;;;;;5021502;28;20030;-56
2021/05/02 03:41:41;;;;;;;1.42;1.20;;;;;;;;;;5031675;28;20065;-55
2021/05/02 03:44:08;;;;;;;1.70;1.60;;;;;;;;;;5030132;28;20026;-54
2021/05/02 03:46:34;;;;;;;3.15;1.10;;;;;;;;;;5032009;28;20041;-56
2021/05/02 03:49:02;;;;;;;5.55;1.20;;;;;;;;;;5029868;28;20096;-55
2021/05/02 03:51:30;;;;;;;2.70;1.40;;;;;;;;;;5031646;28;20091;-55
2021/05/02 03:53:57;;;;;;;2.17;1.23;;;;;;;;;;5019742;28;20437;-56
2021/05/02 03:56:32;;;;;;;1.40;1.27;;;;;;;;;;5024081;28;20034;-54
2021/05/02 03:59:05;;;;;;;1.55;1.45;;;;;;;;;;5031839;28;20030;-55
2021/05/02 04:01:31;;;;;;;3.10;1.87;;;;;;;;;;5028881;28;20115;-56
2021/05/02 04:03:59;;;;;;;3.40;1.90;;;;;;;;;;5029919;28;20280;-56
2021/05/02 04:06:26;;;;;;;3.03;1.83;;;;;;;;;;5029969;28;20037;-54
2021/05/02 04:08:52;;;;;;;1.50;1.30;;;;;;;;;;5026136;28;20555;-54
2021/05/02 04:11:19;;;;;;;1.58;1.42;;;;;;;;;;5018575;28;20037;-55
2021/05/02 04:13:46;;;;;;;2.45;1.50;;;;;;;;;;5029420;28;20041;-55
2021/05/02 04:16:16;;;;;;;3.33;1.73;;;;;;;;;;5023823;28;20042;-54
2021/05/02 04:18:43;;;;;;;5.43;1.92;;;;;;;;;;5031426;28;20076;-54
2021/05/02 04:21:10;;;;;;;2.88;1.50;;;;;;;;;;5029226;28;20043;-55
2021/05/02 04:23:37;;;;;;;5.55;1.52;;;;;;;;;;5031388;28;20486;-55
2021/05/02 04:26:03;;;;;;;1.17;1.17;;;;;;;;;;5024078;28;20038;-56
2021/05/02 04:28:29;;;;;;;1.00;1.00;;;;;;;;;;5022941;28;20076;-55
2021/05/02 04:30:56;;;;;;;2.00;1.40;;;;;;;;;;5027848;28;20132;-55
2021/05/02 04:33:22;;;;;;;2.08;1.67;;;;;;;;;;5028678;28;20266;-55
2021/05/02 04:35:49;;;;;;;1.70;1.30;;;;;;;;;;5027998;28;20481;-55
2021/05/02 04:38:15;;;;;;;2.28;1.33;;;;;;;;;;5029922;28;20048;-56
2021/05/02 04:40:41;;;;;;;4.68;1.42;;;;;;;;;;5027145;28;20572;-55
2021/05/02 04:43:08;;;;;;;3.30;2.00;;;;;;;;;;5016057;28;20045;-55
2021/05/02 04:45:35;;;;;;;3.97;1.73;;;;;;;;;;5028991;28;20569;-56
2021/05/02 04:48:03;;;;;;;2.08;1.10;;;;;;;;;;5027599;28;20046;-55
2021/05/02 04:50:29;;;;;;;1.95;1.38;;;;;;;;;;5028240;28;20532;-55
2021/05/02 04:53:02;;;;;;;3.37;1.30;;;;;;;;;;5029045;28;20049;-55
2021/05/02 04:55:29;;;;;;;1.10;1.10;;;;;;;;;;5024919;28;20038;-52
2021/05/02 04:57:57;;;;;;;8.38;1.77;;;;;;;;;;5023261;28;20165;-56
2021/05/02 05:00:24;;;;;;;1.05;1.05;;;;;;;;;;5018924;28;20505;-54
2021/05/02 05:02:51;;;;;;;2.10;1.00;;;;;;;;;;5016256;28;20042;-55
2021/05/02 05:05:18;;;;;;;4.38;1.10;;;;;;;;;;5025640;28;20696;-55
2021/05/02 05:07:44;;;;;;;1.60;1.42;;;;;;;;;;5027838;28;20033;-56
2021/05/02 05:10:11;;;;;;;1.48;1.15;;;;;;;;;;5028378;28;20041;-55
2021/05/02 05:12:37;;;;;;;3.72;1.30;;;;;;;;;;5022792;28;20108;-56
2021/05/02 05:15:05;;;;;;;4.53;1.20;;;;;;;;;;5014489;28;20080;-55
2021/05/02 05:17:31;;;;;;;1.05;1.00;;;;;;;;;;5023142;28;20045;-54
2021/05/02 05:19:58;;;;;;;1.30;1.30;;;;;;;;;;5028739;28;20394;-55
2021/05/02 05:22:24;;;;;;;1.33;1.10;;;;;;;;;;5029779;28;20034;-55
2021/05/02 05:24:51;;;;;;;1.10;1.10;;;;;;;;;;5023655;28;20087;-56
2021/05/02 05:27:17;;;;;;;2.78;1.45;;;;;;;;;;5022223;28;20768;-55
2021/05/02 05:29:43;;;;;;;2.58;1.10;;;;;;;;;;5027141;28;20049;-54
2021/05/02 05:32:10;;;;;;;1.30;1.20;;;;;;;;;;5028432;28;20052;-54
2021/05/02 05:34:36;;;;;;;4.65;1.40;;;;;;;;;;5029059;28;20061;-56
2021/05/02 05:37:03;;;;;;;2.38;1.13;;;;;;;;;;5027162;28;20045;-55
2021/05/02 05:39:29;;;;;;;1.20;1.10;;;;;;;;;;5028219;28;20470;-55
2021/05/02 05:41:55;;;;;;;5.50;1.13;;;;;;;;;;5023377;28;20502;-54
2021/05/02 05:44:21;;;;;;;1.40;1.10;;;;;;;;;;5028055;28;20654;-54
2021/05/02 05:46:48;;;;;;;1.67;1.00;;;;;;;;;;5028184;28;20042;-54
2021/05/02 05:49:17;;;;;;;1.20;1.10;;;;;;;;;;5026930;28;20048;-54
2021/05/02 05:51:43;;;;;;;1.08;1.08;;;;;;;;;;5012441;28;20077;-54
2021/05/02 05:54:10;;;;;;;1.45;1.00;;;;;;;;;;5026616;28;20041;-54
2021/05/02 05:56:37;;;;;;;2.08;1.00;;;;;;;;;;5028339;28;20033;-53
2021/05/02 05:59:03;;;;;;;4.22;1.20;;;;;;;;;;5027919;28;20125;-54
2021/05/02 06:01:29;;;;;;;1.90;1.00;;;;;;;;;;5026256;28;20505;-54
2021/05/02 06:03:56;;;;;;;1.10;1.00;;;;;;;;;;5029401;28;20037;-55
2021/05/02 06:06:23;;;;;;;3.53;1.10;;;;;;;;;;5021334;28;20060;-55
2021/05/02 06:08:49;;;;;;;1.27;1.17;;;;;;;;;;5016373;28;20041;-56
2021/05/02 06:11:15;;;;;;;2.42;1.10;;;;;;;;;;5021772;28;20045;-54
2021/05/02 06:13:42;;;;;;;1.13;1.13;;;;;;;;;;5027997;28;20041;-55
2021/05/02 06:16:09;;;;;;;1.08;1.00;;;;;;;;;;5014407;28;20041;-55
2021/05/02 06:18:35;;;;;;;2.88;1.30;;;;;;;;;;5022042;28;20815;-54
2021/05/02 06:21:01;;;;;;;2.50;0.93;;;;;;;;;;5024549;28;20038;-54
2021/05/02 06:23:27;;;;;;;1.42;1.13;;;;;;;;;;5028930;28;20562;-55
2021/05/02 06:25:53;;;;;;;1.83;1.10;;;;;;;;;;5023342;28;20121;-55
2021/05/02 06:28:20;;;;;;;1.77;1.00;;;;;;;;;;5011012;28;20534;-53
2021/05/02 06:30:47;;;;;;;2.70;1.23;;;;;;;;;;5027994;28;20037;-53
2021/05/02 06:33:14;;;;;;;1.55;0.90;;;;;;;;;;5024054;28;20514;-55
2021/05/02 06:35:40;;;;;;;2.17;0.98;;;;;;;;;;5028540;28;20045;-55
2021/05/02 06:38:06;;;;;;;3.40;1.00;;;;;;;;;;5029010;28;20103;-55
2021/05/02 06:40:34;;;;;;;1.13;0.90;;;;;;;;;;5033632;28;20052;-55
2021/05/02 06:43:01;;;;;;;1.70;1.00;;;;;;;;;;5030431;28;20037;-56
2021/05/02 06:45:27;;;;;;;1.48;1.38;;;;;;;;;;5032778;28;20041;-55
2021/05/02 06:47:53;;;;;;;1.27;1.00;;;;;;;;;;5030991;28;20131;-53
2021/05/02 06:50:19;;;;;;;1.02;1.00;;;;;;;;;;5030867;28;20081;-55
2021/05/02 06:52:45;;;;;;;1.58;0.90;;;;;;;;;;5030537;28;20045;-55
2021/05/02 06:55:12;;;;;;;2.53;1.00;;;;;;;;;;5027494;28;20118;-54
2021/05/02 06:57:38;;;;;;;2.50;0.90;;;;;;;;;;5030455;28;20033;-54
2021/05/02 07:00:05;;;;;;;0.90;0.90;;;;;;;;;;5031184;28;20072;-54
2021/05/02 07:02:31;;;;;;;3.13;1.00;;;;;;;;;;5028665;28;20433;-54
2021/05/02 07:04:57;;;;;;;1.42;0.90;;;;;;;;;;5032446;28;20664;-53
2021/05/02 07:07:23;;;;;;;2.95;1.00;;;;;;;;;;5029124;28;20048;-54
2021/05/02 07:09:49;;;;;;;1.52;1.27;;;;;;;;;;5027211;28;20560;-53
2021/05/02 07:12:17;;;;;;;1.05;0.90;;;;;;;;;;5029598;28;20072;-54
2021/05/02 07:14:43;;;;;;;1.45;0.90;;;;;;;;;;5025891;28;20049;-55
2021/05/02 07:17:10;;;;;;;1.90;1.00;;;;;;;;;;5030425;28;20061;-54
2021/05/02 07:19:37;;;;;;;2.13;0.77;;;;;;;;;;5028515;28;20088;-54
2021/05/02 07:22:05;;;;;;;2.15;0.90;;;;;;;;;;5025609;28;20037;-54
2021/05/02 07:24:31;;;;;;;3.88;1.00;;;;;;;;;;5024992;28;20062;-54
2021/05/02 07:26:58;;;;;;;2.80;0.95;;;;;;;;;;5019415;28;20041;-54
2021/05/02 07:29:24;;;;;;;0.98;0.80;;;;;;;;;;5031294;28;20712;-54
2021/05/02 07:31:51;;;;;;;1.48;0.80;;;;;;;;;;5028807;28;20369;-53
2021/05/02 07:34:19;;;;;;;2.05;0.90;;;;;;;;;;5028166;28;20042;-54
2021/05/02 07:36:45;;;;;;;1.50;0.80;;;;;;;;;;5026939;28;20087;-54
2021/05/02 07:39:12;;;;;;;1.67;0.85;;;;;;;;;;5029711;28;20052;-54
2021/05/02 07:41:38;;;;;;;3.55;1.00;;;;;;;;;;5029846;28;20069;-54
2021/05/02 07:44:04;;;;;;;2.33;1.13;;;;;;;;;;5029194;28;21772;-54
2021/05/02 07:46:30;;;;;;;2.08;0.90;;;;;;;;;;5023724;28;20096;-54
2021/05/02 07:48:57;;;;;;;3.47;0.90;;;;;;;;;;5027353;28;20552;-54
2021/05/02 07:51:24;;;;;;;0.98;0.80;;;;;;;;;;5018141;28;20053;-54
2021/05/02 07:53:51;;;;;;;1.58;0.82;;;;;;;;;;5028742;28;20474;-54
2021/05/02 07:56:18;;;;;;;1.13;1.00;;;;;;;;;;5030184;28;20050;-55
2021/05/02 07:58:44;;;;;;;1.55;0.80;;;;;;;;;;5023132;28;20048;-54
2021/05/02 08:01:10;;;;;;;1.83;0.90;;;;;;;;;;5027853;28;20521;-53
2021/05/02 08:03:37;;;;;;;1.50;1.00;;;;;;;;;;5038034;28;20049;-54
2021/05/02 08:06:19;;;;;;;3.35;1.48;;;;;;;;;;5024337;28;20062;-53
2021/05/02 08:08:46;;;;;;;1.70;1.02;;;;;;;;;;5029845;28;20037;-54
2021/05/02 08:11:12;;;;;;;3.58;0.90;;;;;;;;;;5040735;28;20041;-54
2021/05/02 08:13:38;;;;;;;3.38;1.00;;;;;;;;;;5031981;28;20084;-55
2021/05/02 08:16:04;;;;;;;2.90;1.17;;;;;;;;;;5027616;28;20049;-55
2021/05/02 08:18:31;;;;;;;3.60;0.90;;;;;;;;;;5028066;28;20052;-54
2021/05/02 08:20:58;;;;;;;1.00;0.90;;;;;;;;;;5028303;28;20473;-54
2021/05/02 08:23:25;;;;;;;5.20;1.08;;;;;;;;;;5028399;28;20038;-55
2021/05/02 08:25:51;;;;;;;1.40;0.90;;;;;;;;;;5028400;28;20065;-55
2021/05/02 08:28:34;;;;;;;1.23;1.13;;;;;;;;;;5030214;28;20042;-54
2021/05/02 08:31:00;;;;;;;2.05;0.80;;;;;;;;;;5028324;28;20048;-54
2021/05/02 08:33:27;;;;;;;1.17;0.80;;;;;;;;;;5018833;28;20037;-54
2021/05/02 08:35:53;;;;;;;3.60;1.00;;;;;;;;;;5022310;28;20566;-55
2021/05/02 08:38:19;;;;;;;2.92;1.02;;;;;;;;;;5021139;28;20121;-55
2021/05/02 08:40:45;;;;;;;0.85;0.85;;;;;;;;;;5031156;28;20088;-54
2021/05/02 08:43:12;;;;;;;1.90;0.90;;;;;;;;;;5026525;28;20049;-54
2021/05/02 08:45:38;;;;;;;0.85;0.85;;;;;;;;;;5030973;28;20425;-54
2021/05/02 08:48:05;;;;;;;1.25;1.00;;;;;;;;;;5029211;28;20075;-54
2021/05/02 08:50:32;;;;;;;1.42;1.33;;;;;;;;;;5029418;28;20053;-54
2021/05/02 08:52:58;;;;;;;2.80;1.10;;;;;;;;;;5017998;28;20044;-55
2021/05/02 08:55:24;;;;;;;2.25;0.90;;;;;;;;;;5022649;28;20083;-54
2021/05/02 08:57:50;;;;;;;1.55;1.08;;;;;;;;;;5024846;28;20477;-55
2021/05/02 09:00:17;;;;;;;2.05;0.90;;;;;;;;;;5023561;28;20062;-54
2021/05/02 09:02:54;;;;;;;1.65;0.80;;;;;;;;;;5015870;28;20053;-54
2021/05/02 09:05:21;;;;;;;0.80;0.80;;;;;;;;;;5028443;28;20100;-55
2021/05/02 09:07:47;;;;;;;0.82;0.70;;;;;;;;;;5027834;28;20052;-54
2021/05/02 09:10:14;;;;;;;1.00;0.80;;;;;;;;;;5023319;28;20076;-54
2021/05/02 09:12:41;;;;;;;0.85;0.85;;;;;;;;;;5026535;28;20066;-54
2021/05/02 09:15:09;;;;;;;3.13;1.15;;;;;;;;;;5016176;28;20044;-53
2021/05/02 09:20:41;;;;;;;2.67;0.80;;;;;;;;;;5027065;28;20041;-54
2021/05/02 09:23:08;;;;;;;3.55;0.90;;;;;;;;;;5024483;28;20048;-54
2021/05/02 09:25:45;;;;;;;4.33;0.90;;;;;;;;;;5028867;28;20063;-54
2021/05/02 09:28:11;;;;;;;0.70;0.70;;;;;;;;;;5024892;28;20053;-54
2021/05/02 09:30:38;;;;;;;1.10;0.90;;;;;;;;;;5028093;28;20080;-54
2021/05/02 09:33:04;;;;;;;2.90;0.80;;;;;;;;;;5027381;28;20044;-55
2021/05/02 09:35:32;;;;;;;1.95;0.80;;;;;;;;;;5018490;28;20044;-53
2021/05/02 09:38:07;;;;;;;3.22;0.80;;;;;;;;;;5027945;28;20042;-55
2021/05/02 09:40:53;;;;;;;0.80;0.80;;;;;;;;;;5038592;28;20041;-53
2021/05/02 09:43:29;;;;;;;0.75;0.75;;;;;;;;;;5026119;28;20037;-54
2021/05/02 09:46:32;;;;;;;2.72;0.70;;;;;;;;;;5027161;28;20128;-55
2021/05/02 09:49:09;;;;;;;1.00;0.90;;;;;;;;;;5018611;28;20053;-54
2021/05/02 09:51:36;;;;;;;3.00;0.80;;;;;;;;;;5023592;28;20038;-55
2021/05/02 09:54:06;;;;;;;2.70;0.95;;;;;;;;;;5025196;28;20037;-55
2021/05/02 09:56:33;;;;;;;1.42;0.70;;;;;;;;;;5024033;28;20120;-54
2021/05/02 09:58:59;;;;;;;0.73;0.68;;;;;;;;;;5027215;28;20033;-54
2021/05/02 10:01:25;;;;;;;0.65;0.65;;;;;;;;;;5026426;28;20140;-54
2021/05/02 10:03:53;;;;;;;1.25;0.90;;;;;;;;;;5035990;28;20037;-54
2021/05/02 10:06:35;;;;;;;2.28;0.80;;;;;;;;;;5021698;28;20042;-54
2021/05/02 10:09:06;;;;;;;2.45;0.90;;;;;;;;;;5034286;28;20077;-55
2021/05/02 10:11:33;;;;;;;0.70;0.70;;;;;;;;;;5026193;28;20375;-54
2021/05/02 10:14:02;;;;;;;3.15;1.20;;;;;;;;;;5027556;28;20039;-54
2021/05/02 10:16:28;;;;;;;0.85;0.80;;;;;;;;;;5028699;28;20076;-54
2021/05/02 10:18:55;;;;;;;3.25;0.93;;;;;;;;;;5027930;28;20041;-55
2021/05/02 10:21:22;;;;;;;2.17;0.88;;;;;;;;;;5027401;28;20033;-53
2021/05/02 10:23:49;;;;;;;2.17;0.80;;;;;;;;;;5027297;28;20044;-53
2021/05/02 10:26:15;;;;;;;1.08;0.98;;;;;;;;;;5018413;28;20042;-53
2021/05/02 10:28:45;;;;;;;3.42;0.95;;;;;;;;;;5025959;28;20036;-54
2021/05/02 10:31:11;;;;;;;1.13;0.75;;;;;;;;;;5023485;28;20049;-54
2021/05/02 10:33:39;;;;;;;2.05;1.10;;;;;;;;;;5019142;28;20474;-54
2021/05/02 10:36:06;;;;;;;2.28;0.85;;;;;;;;;;5022150;28;20375;-55
2021/05/02 10:38:44;;;;;;;1.27;0.88;;;;;;;;;;5029689;28;20460;-54
2021/05/02 10:41:29;;;;;;;2.40;1.13;;;;;;;;;;5023583;28;20044;-53
2021/05/02 10:44:15;;;;;;;0.80;0.80;;;;;;;;;;5022897;28;20074;-54
2021/05/02 10:46:45;;;;;;;1.15;0.70;;;;;;;;;;5016904;28;20038;-54
2021/05/02 10:49:20;;;;;;;1.00;1.00;;;;;;;;;;5024787;28;20449;-55
2021/05/02 10:51:47;;;;;;;0.80;0.80;;;;;;;;;;5012087;28;20856;-54
2021/05/02 10:54:15;;;;;;;0.93;0.90;;;;;;;;;;5027033;28;20038;-55
2021/05/02 10:56:42;;;;;;;0.70;0.70;;;;;;;;;;5025920;28;20405;-54
2021/05/02 10:59:09;;;;;;;0.80;0.80;;;;;;;;;;5021578;28;20038;-55
2021/05/02 11:01:35;;;;;;;1.88;0.93;;;;;;;;;;5022898;28;20096;-54
2021/05/02 11:04:02;;;;;;;1.33;1.10;;;;;;;;;;5009202;28;20454;-55
2021/05/02 11:06:37;;;;;;;1.38;0.80;;;;;;;;;;5025931;28;20076;-54
2021/05/02 11:09:14;;;;;;;2.30;0.80;;;;;;;;;;5021735;28;20038;-55
2021/05/02 11:11:42;;;;;;;0.93;0.80;;;;;;;;;;5013862;28;20674;-55
2021/05/02 11:16:39;;;;;;;0.80;0.80;;;;;;;;;;5028074;28;20042;-55
2021/05/02 11:19:15;;;;;;;1.92;0.90;;;;;;;;;;5025888;28;20029;-55
2021/05/02 11:21:57;;;;;;;0.80;0.80;;;;;;;;;;5026165;28;20567;-55
2021/05/02 11:24:24;;;;;;;1.27;0.80;;;;;;;;;;5028948;28;20371;-55
2021/05/02 11:27:39;;;;;;;0.75;0.70;;;;;;;;;;5029567;28;20088;-56
2021/05/02 11:30:06;;;;;;;1.95;0.80;;;;;;;;;;5029488;28;20053;-54
2021/05/02 11:32:38;;;;;;;1.95;0.80;;;;;;;;;;5017014;28;20034;-55
2021/05/02 11:35:06;;;;;;;1.60;0.70;;;;;;;;;;5027931;28;20049;-54
2021/05/02 11:37:50;;;;;;;2.05;0.70;;;;;;;;;;5030348;28;20767;-55
2021/05/02 11:40:26;;;;;;;0.80;0.80;;;;;;;;;;5031875;28;20034;-55
2021/05/02 11:42:55;;;;;;;2.40;0.80;;;;;;;;;;5028983;28;20060;-55
2021/05/02 11:45:23;;;;;;;0.93;0.80;;;;;;;;;;5015172;28;20056;-55
2021/05/02 11:47:50;;;;;;;3.22;1.23;;;;;;;;;;5029084;28;20052;-55
2021/05/02 11:50:16;;;;;;;0.80;0.80;;;;;;;;;;5031984;28;20136;-55
2021/05/02 11:52:49;;;;;;;0.80;0.80;;;;;;;;;;5026570;28;20103;-55
2021/05/02 11:55:26;;;;;;;0.70;0.70;;;;;;;;;;5029258;28;20037;-54
2021/05/02 11:57:52;;;;;;;1.50;1.27;;;;;;;;;;5032443;28;20103;-54
2021/05/02 12:00:31;;;;;;;1.10;0.80;;;;;;;;;;5028242;28;20041;-54
2021/05/02 12:02:58;;;;;;;0.90;0.80;;;;;;;;;;5029764;28;20132;-55
2021/05/02 12:05:24;;;;;;;1.00;1.00;;;;;;;;;;5029935;28;20145;-54
2021/05/02 12:08:05;;;;;;;3.05;0.77;;;;;;;;;;5023473;28;20045;-54
2021/05/02 12:10:32;;;;;;;0.80;0.80;;;;;;;;;;5031805;28;20551;-55
2021/05/02 12:12:58;;;;;;;0.75;0.73;;;;;;;;;;5029878;28;20460;-54
2021/05/02 12:15:24;;;;;;;2.03;0.90;;;;;;;;;;5030138;28;20120;-54
2021/05/02 12:17:53;;;;;;;1.90;0.80;;;;;;;;;;5024312;28;20041;-56
2021/05/02 12:20:23;;;;;;;1.15;0.80;;;;;;;;;;5023360;28;20065;-55
2021/05/02 12:22:49;;;;;;;1.50;0.80;;;;;;;;;;5030988;28;20050;-54
2021/05/02 12:25:16;;;;;;;1.58;0.80;;;;;;;;;;5028526;28;20525;-53
2021/05/02 12:27:59;;;;;;;6.35;0.80;;;;;;;;;;5030532;28;20050;-55
2021/05/02 12:30:25;;;;;;;1.77;0.80;;;;;;;;;;5031104;28;20053;-55
2021/05/02 12:32:54;;;;;;;1.10;0.77;;;;;;;;;;5022185;28;20548;-54
2021/05/02 12:35:22;;;;;;;3.00;1.55;;;;;;;;;;5016643;28;20054;-55
2021/05/02 12:37:48;;;;;;;3.03;0.90;;;;;;;;;;5027661;28;20037;-55
2021/05/02 12:40:14;;;;;;;1.33;0.90;;;;;;;;;;5029499;28;20034;-55
2021/05/02 12:42:41;;;;;;;1.30;1.00;;;;;;;;;;5021954;28;20621;-54
2021/05/02 12:45:08;;;;;;;0.95;0.80;;;;;;;;;;5029449;28;20037;-53
2021/05/02 12:47:38;;;;;;;0.85;0.80;;;;;;;;;;5020788;28;20455;-49
2021/05/02 12:50:07;;;;;;;0.70;0.70;;;;;;;;;;5026061;28;20037;-45
2021/05/02 12:52:37;;;;;;;1.17;0.75;;;;;;;;;;5027774;28;20050;-48
2021/05/02 12:55:19;;;;;;;1.45;0.60;;;;;;;;;;5030569;28;20087;-46
2021/05/02 12:57:49;;;;;;;3.38;0.70;;;;;;;;;;5025948;28;20378;-48
2021/05/02 13:00:18;;;;;;;2.05;0.73;;;;;;;;;;5029019;28;20040;-49
2021/05/02 13:02:45;;;;;;;0.70;0.70;;;;;;;;;;5028078;28;20046;-46
2021/05/02 13:05:13;;;;;;;1.77;0.70;;;;;;;;;;5029434;28;20049;-48
2021/05/02 13:07:45;;;;;;;0.70;0.70;;;;;;;;;;5029437;28;20041;-47
2021/05/02 13:10:21;;;;;;;0.88;0.70;;;;;;;;;;5027967;28;20619;-47
2021/05/02 13:12:48;;;;;;;0.60;0.60;;;;;;;;;;5020808;28;20042;-46
2021/05/02 13:15:16;;;;;;;0.60;0.60;;;;;;;;;;5019216;28;20366;-44
2021/05/02 13:18:01;;;;;;;0.65;0.60;;;;;;;;;;5020047;28;20445;-44
2021/05/02 13:20:41;;;;;;;5.13;0.70;;;;;;;;;;5027669;28;20816;-44
2021/05/02 13:23:08;;;;;;;1.88;0.70;;;;;;;;;;5022500;28;20041;-47
2021/05/02 13:25:34;;;;;;;0.60;0.60;;;;;;;;;;5028396;28;20389;-49
2021/05/02 13:28:05;;;;;;;0.70;0.70;;;;;;;;;;5024031;28;20049;-48
2021/05/02 13:30:34;;;;;;;1.52;0.80;;;;;;;;;;5021376;28;20049;-45
2021/05/02 13:33:15;;;;;;;2.28;0.70;;;;;;;;;;5026269;28;20564;-45
2021/05/02 13:35:45;;;;;;;1.08;0.65;;;;;;;;;;5024908;28;20055;-45
2021/05/02 13:38:15;;;;;;;0.60;0.60;;;;;;;;;;5026056;28;20056;-43
2021/05/02 13:40:44;;;;;;;0.70;0.70;;;;;;;;;;5024993;28;20370;-43
2021/05/02 13:43:10;;;;;;;1.35;0.60;;;;;;;;;;5021815;28;20045;-44
2021/05/02 13:45:41;;;;;;;1.20;0.70;;;;;;;;;;5022572;28;20041;-44
2021/05/02 13:48:07;;;;;;;1.88;0.70;;;;;;;;;;5020658;28;20053;-45
2021/05/02 13:50:34;;;;;;;1.50;0.70;;;;;;;;;;5021379;28;20153;-43
2021/05/02 13:53:01;;;;;;;5.03;0.60;;;;;;;;;;5023700;28;20045;-44
2021/05/02 13:55:31;;;;;;;2.72;0.70;;;;;;;;;;5026931;28;20044;-44
2021/05/02 13:57:58;;;;;;;1.20;0.70;;;;;;;;;;5026472;28;20132;-45
2021/05/02 14:00:25;;;;;;;0.70;0.70;;;;;;;;;;5025782;28;20113;-46
2021/05/02 14:02:51;;;;;;;0.70;0.70;;;;;;;;;;5023769;28;20045;-45
2021/05/02 14:05:18;;;;;;;1.17;0.70;;;;;;;;;;5024480;28;20033;-44
2021/05/02 14:07:45;;;;;;;0.75;0.70;;;;;;;;;;5023953;28;20041;-45
2021/05/02 14:10:11;;;;;;;1.42;0.60;;;;;;;;;;5026428;28;20089;-44
2021/05/02 14:12:38;;;;;;;0.77;0.60;;;;;;;;;;5026489;28;20052;-44
2021/05/02 14:15:06;;;;;;;1.00;0.70;;;;;;;;;;5026668;28;20060;-45
2021/05/02 14:17:32;;;;;;;0.73;0.60;;;;;;;;;;5024945;28;20068;-45
2021/05/02 14:19:58;;;;;;;0.60;0.60;;;;;;;;;;5015984;28;20882;-42
2021/05/02 14:22:25;;;;;;;1.70;0.60;;;;;;;;;;5022589;28;20124;-45
2021/05/02 14:24:51;;;;;;;0.70;0.70;;;;;;;;;;5025355;28;20108;-44
2021/05/02 14:27:18;;;;;;;1.50;0.70;;;;;;;;;;5024106;28;20038;-43
2021/05/02 14:29:44;;;;;;;0.75;0.70;;;;;;;;;;5024748;28;20045;-44
2021/05/02 14:32:14;;;;;;;0.70;0.70;;;;;;;;;;5022926;28;20430;-44
2021/05/02 14:34:42;;;;;;;1.30;0.70;;;;;;;;;;5026070;28;20120;-44
2021/05/02 14:37:09;;;;;;;1.00;1.00;;;;;;;;;;5033975;28;20042;-44
2021/05/02 14:39:36;;;;;;;2.97;0.70;;;;;;;;;;5026052;28;20103;-45
2021/05/02 14:42:04;;;;;;;0.60;0.60;;;;;;;;;;5025078;28;20052;-47
2021/05/02 14:44:31;;;;;;;0.85;0.70;;;;;;;;;;5017878;28;20037;-44
2021/05/02 14:46:57;;;;;;;0.70;0.70;;;;;;;;;;5022257;28;20076;-44
2021/05/02 14:49:24;;;;;;;1.10;0.70;;;;;;;;;;5026464;28;20482;-43
2021/05/02 14:52:05;;;;;;;0.60;0.60;;;;;;;;;;5023054;28;20069;-44
2021/05/02 14:54:34;;;;;;;0.77;0.77;;;;;;;;;;5024040;28;20049;-44
2021/05/02 14:57:02;;;;;;;0.60;0.60;;;;;;;;;;5020271;28;20041;-44